aviador You're here:

KLEW Decoded Metar

AUBURN/LEWISTON in ME, USA
Report Time2017-09-23 17:56:00
UTC Time2017-09-23 18:23:10
Flight Rules vfr VFR
WindCalm
Visibility9999 m
Phenomena:N/A
Clouds:N/A
Expected CloudBase > 6,000 ft AGL from Temp-Dew spread
CeilingNone
Temp27°C (ISA +13)
Dew Point12°C (39% RH)
Heat Index26.8°C
QNH1017 hPa
Density Alt1,795 ft
Elevation289 ft
Report Wrong Elevation
Raw Report
METAR KLEW 231756Z AUTO 00000KT 10SM CLR 27/12 A3002 RMK AO2 SLP179
T02720117 10272 20133 56010=

Extra information for KLEW:More info

Metar Taf Metar & Taf Last 4 Metars F.Rules Stats Wind Profile Meteogram Temp Stats Airport Information Weather charts Add Link Nearby VenuesMetar ALERT Operation Metar Decoded Social comments

AIRNAV info for KLEW